sensor_id;sensor_type;location;lat;lon;timestamp;temperature;humidity
4813;DHT22;2420;51.202;8.698;2023-02-28T00:00:15;-0.90;1.00
4813;DHT22;2420;51.202;8.698;2023-02-28T00:02:42;-0.90;1.00
4813;DHT22;2420;51.202;8.698;2023-02-28T00:05:10;-0.80;1.00
4813;DHT22;2420;51.202;8.698;2023-02-28T00:07:36;-0.70;1.00
4813;DHT22;2420;51.202;8.698;2023-02-28T00:10:03;-0.80;1.00
4813;DHT22;2420;51.202;8.698;2023-02-28T00:12:28;-0.80;1.00
4813;DHT22;2420;51.202;8.698;2023-02-28T00:14:54;-0.60;1.00
4813;DHT22;2420;51.202;8.698;2023-02-28T00:17:20;-0.70;1.00
4813;DHT22;2420;51.202;8.698;2023-02-28T00:19:50;-0.70;1.00
4813;DHT22;2420;51.202;8.698;2023-02-28T00:22:16;-1.00;1.00
4813;DHT22;2420;51.202;8.698;2023-02-28T00:24:42;-0.60;1.00
4813;DHT22;2420;51.202;8.698;2023-02-28T00:27:08;-0.90;1.00
4813;DHT22;2420;51.202;8.698;2023-02-28T00:29:33;-0.60;1.00
4813;DHT22;2420;51.202;8.698;2023-02-28T00:31:59;-0.90;1.00
4813;DHT22;2420;51.202;8.698;2023-02-28T00:34:24;-0.80;1.00
4813;DHT22;2420;51.202;8.698;2023-02-28T00:36:50;-0.70;1.00
4813;DHT22;2420;51.202;8.698;2023-02-28T00:39:16;-0.70;1.00
4813;DHT22;2420;51.202;8.698;2023-02-28T00:41:42;-0.70;1.00
4813;DHT22;2420;51.202;8.698;2023-02-28T00:44:07;-0.60;1.00
4813;DHT22;2420;51.202;8.698;2023-02-28T00:46:33;-0.80;1.00
4813;DHT22;2420;51.202;8.698;2023-02-28T00:48:58;-0.70;1.00
4813;DHT22;2420;51.202;8.698;2023-02-28T00:51:24;-0.90;1.00
4813;DHT22;2420;51.202;8.698;2023-02-28T00:53:50;-0.60;1.00
4813;DHT22;2420;51.202;8.698;2023-02-28T00:56:15;-0.60;1.00
4813;DHT22;2420;51.202;8.698;2023-02-28T00:58:41;-0.60;1.00
4813;DHT22;2420;51.202;8.698;2023-02-28T01:01:06;-0.80;1.00
4813;DHT22;2420;51.202;8.698;2023-02-28T01:03:32;-0.80;1.00
4813;DHT22;2420;51.202;8.698;2023-02-28T01:05:58;-0.80;1.00
4813;DHT22;2420;51.202;8.698;2023-02-28T01:08:24;-0.70;1.00
4813;DHT22;2420;51.202;8.698;2023-02-28T01:10:51;-0.80;1.00
4813;DHT22;2420;51.202;8.698;2023-02-28T01:13:17;-0.80;1.00
4813;DHT22;2420;51.202;8.698;2023-02-28T01:15:50;-0.90;1.00
4813;DHT22;2420;51.202;8.698;2023-02-28T01:18:16;-0.90;1.00
4813;DHT22;2420;51.202;8.698;2023-02-28T01:20:42;-0.90;1.00
4813;DHT22;2420;51.202;8.698;2023-02-28T01:23:07;-0.90;1.00
4813;DHT22;2420;51.202;8.698;2023-02-28T01:25:35;-1.00;1.00
4813;DHT22;2420;51.202;8.698;2023-02-28T01:28:00;-0.90;1.00
4813;DHT22;2420;51.202;8.698;2023-02-28T01:30:26;-0.80;1.00
4813;DHT22;2420;51.202;8.698;2023-02-28T01:32:51;-0.80;1.00
4813;DHT22;2420;51.202;8.698;2023-02-28T01:35:20;-1.00;1.00
4813;DHT22;2420;51.202;8.698;2023-02-28T01:37:45;-1.00;1.00
4813;DHT22;2420;51.202;8.698;2023-02-28T01:40:12;-0.80;1.00
4813;DHT22;2420;51.202;8.698;2023-02-28T01:42:37;-1.00;1.00
4813;DHT22;2420;51.202;8.698;2023-02-28T01:45:22;-0.70;1.00
4813;DHT22;2420;51.202;8.698;2023-02-28T01:47:52;-0.80;1.00
4813;DHT22;2420;51.202;8.698;2023-02-28T01:50:25;-1.00;1.00
4813;DHT22;2420;51.202;8.698;2023-02-28T01:52:54;-0.80;1.00
4813;DHT22;2420;51.202;8.698;2023-02-28T01:55:22;-1.00;1.00
4813;DHT22;2420;51.202;8.698;2023-02-28T01:57:52;-1.00;1.00
4813;DHT22;2420;51.202;8.698;2023-02-28T02:00:21;-1.10;1.00
4813;DHT22;2420;51.202;8.698;2023-02-28T02:02:51;-0.90;1.00
4813;DHT22;2420;51.202;8.698;2023-02-28T02:05:21;-1.00;1.00
4813;DHT22;2420;51.202;8.698;2023-02-28T02:07:54;-0.90;1.00
4813;DHT22;2420;51.202;8.698;2023-02-28T02:10:31;-1.00;1.00
4813;DHT22;2420;51.202;8.698;2023-02-28T02:15:34;-1.10;1.00
4813;DHT22;2420;51.202;8.698;2023-02-28T02:35:25;-1.20;1.00
4813;DHT22;2420;51.202;8.698;2023-02-28T02:38:06;-1.20;1.00
4813;DHT22;2420;51.202;8.698;2023-02-28T02:40:43;-1.20;1.00
4813;DHT22;2420;51.202;8.698;2023-02-28T02:46:06;-1.20;1.00
4813;DHT22;2420;51.202;8.698;2023-02-28T02:48:36;-1.20;1.00
4813;DHT22;2420;51.202;8.698;2023-02-28T02:51:07;-1.50;1.00
4813;DHT22;2420;51.202;8.698;2023-02-28T02:53:44;-1.30;1.00
4813;DHT22;2420;51.202;8.698;2023-02-28T02:56:12;-1.40;1.00
4813;DHT22;2420;51.202;8.698;2023-02-28T02:58:41;-1.10;1.00
4813;DHT22;2420;51.202;8.698;2023-02-28T03:01:11;-1.20;1.00
4813;DHT22;2420;51.202;8.698;2023-02-28T03:03:37;-1.10;1.00
4813;DHT22;2420;51.202;8.698;2023-02-28T03:06:03;-1.10;1.00
4813;DHT22;2420;51.202;8.698;2023-02-28T03:08:35;-1.10;1.00
4813;DHT22;2420;51.202;8.698;2023-02-28T03:11:04;-1.20;1.00
4813;DHT22;2420;51.202;8.698;2023-02-28T03:13:46;-1.00;1.00
4813;DHT22;2420;51.202;8.698;2023-02-28T03:16:33;-0.90;1.00
4813;DHT22;2420;51.202;8.698;2023-02-28T03:25:29;-1.10;1.00
4813;DHT22;2420;51.202;8.698;2023-02-28T03:27:58;-1.00;1.00
4813;DHT22;2420;51.202;8.698;2023-02-28T03:30:33;-1.10;1.00
4813;DHT22;2420;51.202;8.698;2023-02-28T03:33:10;-1.10;1.00
4813;DHT22;2420;51.202;8.698;2023-02-28T03:35:48;-1.10;1.00
4813;DHT22;2420;51.202;8.698;2023-02-28T03:38:38;-1.20;1.00
4813;DHT22;2420;51.202;8.698;2023-02-28T03:41:15;-1.20;1.00
4813;DHT22;2420;51.202;8.698;2023-02-28T03:43:50;-1.40;1.00
4813;DHT22;2420;51.202;8.698;2023-02-28T03:46:21;-1.30;1.00
4813;DHT22;2420;51.202;8.698;2023-02-28T03:48:54;-1.20;1.00
4813;DHT22;2420;51.202;8.698;2023-02-28T03:51:22;-1.10;1.00
4813;DHT22;2420;51.202;8.698;2023-02-28T03:54:11;-1.20;1.00
4813;DHT22;2420;51.202;8.698;2023-02-28T03:56:49;-1.10;1.00
4813;DHT22;2420;51.202;8.698;2023-02-28T03:59:32;-1.10;1.00
4813;DHT22;2420;51.202;8.698;2023-02-28T04:01:59;-1.30;1.00
4813;DHT22;2420;51.202;8.698;2023-02-28T04:04:25;-1.30;1.00
4813;DHT22;2420;51.202;8.698;2023-02-28T04:07:02;-1.10;1.00
4813;DHT22;2420;51.202;8.698;2023-02-28T04:09:27;-1.10;1.00
4813;DHT22;2420;51.202;8.698;2023-02-28T04:11:53;-1.20;1.00
4813;DHT22;2420;51.202;8.698;2023-02-28T04:14:19;-1.40;1.00
4813;DHT22;2420;51.202;8.698;2023-02-28T04:16:45;-1.40;1.00
4813;DHT22;2420;51.202;8.698;2023-02-28T04:19:11;-1.30;1.00
4813;DHT22;2420;51.202;8.698;2023-02-28T04:21:42;-1.40;1.00
4813;DHT22;2420;51.202;8.698;2023-02-28T04:24:10;-1.60;1.00
4813;DHT22;2420;51.202;8.698;2023-02-28T04:26:40;-1.40;1.00
4813;DHT22;2420;51.202;8.698;2023-02-28T04:29:06;-1.60;1.00
4813;DHT22;2420;51.202;8.698;2023-02-28T04:31:33;-1.50;1.00
4813;DHT22;2420;51.202;8.698;2023-02-28T04:33:59;-1.60;1.00
4813;DHT22;2420;51.202;8.698;2023-02-28T04:36:25;-1.50;1.00
4813;DHT22;2420;51.202;8.698;2023-02-28T04:38:50;-1.80;1.00
4813;DHT22;2420;51.202;8.698;2023-02-28T04:41:16;-1.80;1.00
4813;DHT22;2420;51.202;8.698;2023-02-28T04:43:42;-1.70;1.00
4813;DHT22;2420;51.202;8.698;2023-02-28T04:46:08;-1.90;1.00
4813;DHT22;2420;51.202;8.698;2023-02-28T04:48:36;-2.00;1.00
4813;DHT22;2420;51.202;8.698;2023-02-28T04:51:10;-1.80;1.00
4813;DHT22;2420;51.202;8.698;2023-02-28T04:53:37;-1.90;1.00
4813;DHT22;2420;51.202;8.698;2023-02-28T04:56:03;-1.70;1.00
4813;DHT22;2420;51.202;8.698;2023-02-28T04:58:29;-2.00;1.00
4813;DHT22;2420;51.202;8.698;2023-02-28T05:01:05;-1.90;1.00
4813;DHT22;2420;51.202;8.698;2023-02-28T05:03:38;-1.90;1.00
4813;DHT22;2420;51.202;8.698;2023-02-28T05:06:06;-1.70;1.00
4813;DHT22;2420;51.202;8.698;2023-02-28T05:08:31;-1.70;1.00
4813;DHT22;2420;51.202;8.698;2023-02-28T05:10:57;-1.70;1.00
4813;DHT22;2420;51.202;8.698;2023-02-28T05:13:22;-1.60;1.00
4813;DHT22;2420;51.202;8.698;2023-02-28T05:15:48;-1.80;1.00
4813;DHT22;2420;51.202;8.698;2023-02-28T05:18:13;-1.90;1.00
4813;DHT22;2420;51.202;8.698;2023-02-28T05:20:39;-1.60;1.00
4813;DHT22;2420;51.202;8.698;2023-02-28T05:23:04;-1.70;1.00
4813;DHT22;2420;51.202;8.698;2023-02-28T05:25:30;-1.60;1.00
4813;DHT22;2420;51.202;8.698;2023-02-28T05:27:55;-1.50;1.00
4813;DHT22;2420;51.202;8.698;2023-02-28T05:30:21;-1.40;1.00
4813;DHT22;2420;51.202;8.698;2023-02-28T05:32:50;-1.40;1.00
4813;DHT22;2420;51.202;8.698;2023-02-28T05:35:16;-1.70;1.00
4813;DHT22;2420;51.202;8.698;2023-02-28T05:37:41;-1.40;1.00
4813;DHT22;2420;51.202;8.698;2023-02-28T05:40:07;-1.70;1.00
4813;DHT22;2420;51.202;8.698;2023-02-28T05:42:36;-1.30;1.00
4813;DHT22;2420;51.202;8.698;2023-02-28T05:45:03;-1.50;1.00
4813;DHT22;2420;51.202;8.698;2023-02-28T05:47:29;-1.40;1.00
4813;DHT22;2420;51.202;8.698;2023-02-28T05:49:55;-1.60;1.00
4813;DHT22;2420;51.202;8.698;2023-02-28T05:52:20;-1.70;1.00
4813;DHT22;2420;51.202;8.698;2023-02-28T05:54:46;-1.70;1.00
4813;DHT22;2420;51.202;8.698;2023-02-28T05:57:12;-1.50;1.00
4813;DHT22;2420;51.202;8.698;2023-02-28T05:59:37;-1.50;1.00
4813;DHT22;2420;51.202;8.698;2023-02-28T06:02:06;-1.50;1.00
4813;DHT22;2420;51.202;8.698;2023-02-28T06:04:31;-1.60;1.00
4813;DHT22;2420;51.202;8.698;2023-02-28T06:06:57;-1.80;1.00
4813;DHT22;2420;51.202;8.698;2023-02-28T06:09:23;-1.80;1.00
4813;DHT22;2420;51.202;8.698;2023-02-28T06:11:48;-1.90;1.00
4813;DHT22;2420;51.202;8.698;2023-02-28T06:14:17;-2.00;1.00
4813;DHT22;2420;51.202;8.698;2023-02-28T06:16:43;-2.00;1.00
4813;DHT22;2420;51.202;8.698;2023-02-28T06:19:09;-1.70;1.00
4813;DHT22;2420;51.202;8.698;2023-02-28T06:21:35;-2.00;1.00
4813;DHT22;2420;51.202;8.698;2023-02-28T06:24:01;-1.80;1.00
4813;DHT22;2420;51.202;8.698;2023-02-28T06:26:27;-1.80;1.00
4813;DHT22;2420;51.202;8.698;2023-02-28T06:28:53;-1.70;1.00
4813;DHT22;2420;51.202;8.698;2023-02-28T06:31:19;-1.90;1.00
4813;DHT22;2420;51.202;8.698;2023-02-28T06:33:45;-2.00;1.00
4813;DHT22;2420;51.202;8.698;2023-02-28T06:36:13;-1.80;1.00
4813;DHT22;2420;51.202;8.698;2023-02-28T06:38:39;-1.90;1.00
4813;DHT22;2420;51.202;8.698;2023-02-28T06:41:08;-1.70;1.00
4813;DHT22;2420;51.202;8.698;2023-02-28T06:43:36;-1.60;1.00
4813;DHT22;2420;51.202;8.698;2023-02-28T06:46:05;-1.60;1.00
4813;DHT22;2420;51.202;8.698;2023-02-28T06:48:31;-1.70;1.00
4813;DHT22;2420;51.202;8.698;2023-02-28T06:51:11;-1.90;1.00
4813;DHT22;2420;51.202;8.698;2023-02-28T06:53:38;-1.70;1.00
4813;DHT22;2420;51.202;8.698;2023-02-28T06:56:12;-1.80;1.00
4813;DHT22;2420;51.202;8.698;2023-02-28T06:58:38;-1.60;1.00
4813;DHT22;2420;51.202;8.698;2023-02-28T07:01:05;-1.70;1.00
4813;DHT22;2420;51.202;8.698;2023-02-28T07:03:34;-1.70;1.00
4813;DHT22;2420;51.202;8.698;2023-02-28T07:05:59;-1.50;1.00
4813;DHT22;2420;51.202;8.698;2023-02-28T07:08:25;-1.30;1.00
4813;DHT22;2420;51.202;8.698;2023-02-28T07:10:56;-1.30;1.00
4813;DHT22;2420;51.202;8.698;2023-02-28T07:13:22;-1.30;1.00
4813;DHT22;2420;51.202;8.698;2023-02-28T07:16:00;-1.30;1.00
4813;DHT22;2420;51.202;8.698;2023-02-28T07:18:26;-1.10;1.00
4813;DHT22;2420;51.202;8.698;2023-02-28T07:20:52;-0.90;1.00
4813;DHT22;2420;51.202;8.698;2023-02-28T07:23:18;-1.20;1.00
4813;DHT22;2420;51.202;8.698;2023-02-28T07:25:44;-1.20;1.00
4813;DHT22;2420;51.202;8.698;2023-02-28T07:28:11;-1.00;1.00
4813;DHT22;2420;51.202;8.698;2023-02-28T07:30:38;-0.90;1.00
4813;DHT22;2420;51.202;8.698;2023-02-28T07:33:04;-0.90;1.00
4813;DHT22;2420;51.202;8.698;2023-02-28T07:35:30;-1.20;1.00
4813;DHT22;2420;51.202;8.698;2023-02-28T07:37:58;-1.30;1.00
4813;DHT22;2420;51.202;8.698;2023-02-28T07:40:24;-1.10;1.00
4813;DHT22;2420;51.202;8.698;2023-02-28T07:42:50;-1.30;1.00
4813;DHT22;2420;51.202;8.698;2023-02-28T07:45:15;-1.10;1.00
4813;DHT22;2420;51.202;8.698;2023-02-28T07:47:42;-1.00;1.00
4813;DHT22;2420;51.202;8.698;2023-02-28T07:50:09;-1.10;1.00
4813;DHT22;2420;51.202;8.698;2023-02-28T07:52:36;-1.10;1.00
4813;DHT22;2420;51.202;8.698;2023-02-28T07:55:02;-1.00;1.00
4813;DHT22;2420;51.202;8.698;2023-02-28T07:57:27;-0.60;1.00
4813;DHT22;2420;51.202;8.698;2023-02-28T07:59:53;-0.60;1.00
4813;DHT22;2420;51.202;8.698;2023-02-28T08:02:19;-0.40;1.00
4813;DHT22;2420;51.202;8.698;2023-02-28T08:04:44;-0.30;1.00
4813;DHT22;2420;51.202;8.698;2023-02-28T08:07:12;-0.20;1.00
4813;DHT22;2420;51.202;8.698;2023-02-28T08:09:39;-0.20;1.00
4813;DHT22;2420;51.202;8.698;2023-02-28T08:12:06;-0.30;1.00
4813;DHT22;2420;51.202;8.698;2023-02-28T08:14:32;0.20;1.00
4813;DHT22;2420;51.202;8.698;2023-02-28T08:16:58;0.10;1.00
4813;DHT22;2420;51.202;8.698;2023-02-28T08:19:23;0.10;1.00
4813;DHT22;2420;51.202;8.698;2023-02-28T08:21:49;0.00;1.00
4813;DHT22;2420;51.202;8.698;2023-02-28T08:24:14;0.10;1.00
4813;DHT22;2420;51.202;8.698;2023-02-28T08:26:40;0.10;1.00
4813;DHT22;2420;51.202;8.698;2023-02-28T08:29:06;0.00;1.00
4813;DHT22;2420;51.202;8.698;2023-02-28T08:31:31;-0.10;1.00
4813;DHT22;2420;51.202;8.698;2023-02-28T08:33:57;-0.10;1.00
4813;DHT22;2420;51.202;8.698;2023-02-28T08:36:25;0.20;1.00
4813;DHT22;2420;51.202;8.698;2023-02-28T08:38:51;0.20;1.00
4813;DHT22;2420;51.202;8.698;2023-02-28T08:41:16;0.40;1.00
4813;DHT22;2420;51.202;8.698;2023-02-28T08:43:42;0.20;1.00
4813;DHT22;2420;51.202;8.698;2023-02-28T08:46:08;-0.30;1.00
4813;DHT22;2420;51.202;8.698;2023-02-28T08:48:36;-0.20;1.00
4813;DHT22;2420;51.202;8.698;2023-02-28T08:51:23;0.00;1.00
4813;DHT22;2420;51.202;8.698;2023-02-28T08:53:57;0.00;1.00
4813;DHT22;2420;51.202;8.698;2023-02-28T08:56:23;-0.10;1.00
4813;DHT22;2420;51.202;8.698;2023-02-28T08:58:49;0.00;1.00
4813;DHT22;2420;51.202;8.698;2023-02-28T09:01:18;-0.10;1.00
4813;DHT22;2420;51.202;8.698;2023-02-28T09:03:46;-0.20;1.00
4813;DHT22;2420;51.202;8.698;2023-02-28T09:06:13;0.00;1.00
4813;DHT22;2420;51.202;8.698;2023-02-28T09:08:39;-0.20;1.00
4813;DHT22;2420;51.202;8.698;2023-02-28T09:11:06;-0.30;1.00
4813;DHT22;2420;51.202;8.698;2023-02-28T09:13:32;-0.10;1.00
4813;DHT22;2420;51.202;8.698;2023-02-28T09:15:59;-0.20;1.00
4813;DHT22;2420;51.202;8.698;2023-02-28T09:18:25;-0.30;1.00
4813;DHT22;2420;51.202;8.698;2023-02-28T09:20:51;0.10;1.00
4813;DHT22;2420;51.202;8.698;2023-02-28T09:23:18;-0.20;1.00
4813;DHT22;2420;51.202;8.698;2023-02-28T09:25:48;0.00;1.00
4813;DHT22;2420;51.202;8.698;2023-02-28T09:28:14;-0.30;1.00
4813;DHT22;2420;51.202;8.698;2023-02-28T09:30:47;-0.10;1.00
4813;DHT22;2420;51.202;8.698;2023-02-28T09:33:14;-0.20;1.00
4813;DHT22;2420;51.202;8.698;2023-02-28T09:35:39;-0.10;1.00
4813;DHT22;2420;51.202;8.698;2023-02-28T09:38:05;-0.10;1.00
4813;DHT22;2420;51.202;8.698;2023-02-28T09:40:36;0.00;1.00
4813;DHT22;2420;51.202;8.698;2023-02-28T09:43:03;0.00;1.00
4813;DHT22;2420;51.202;8.698;2023-02-28T09:45:37;0.10;1.00
4813;DHT22;2420;51.202;8.698;2023-02-28T09:48:27;0.20;1.00
4813;DHT22;2420;51.202;8.698;2023-02-28T09:51:00;0.50;1.00
4813;DHT22;2420;51.202;8.698;2023-02-28T09:53:33;0.20;1.00
4813;DHT22;2420;51.202;8.698;2023-02-28T09:56:04;0.60;1.00
4813;DHT22;2420;51.202;8.698;2023-02-28T09:58:47;0.80;1.00
4813;DHT22;2420;51.202;8.698;2023-02-28T10:01:25;1.00;1.00
4813;DHT22;2420;51.202;8.698;2023-02-28T10:04:05;1.20;1.00
4813;DHT22;2420;51.202;8.698;2023-02-28T10:06:46;1.50;1.00
4813;DHT22;2420;51.202;8.698;2023-02-28T10:09:25;1.70;1.00
4813;DHT22;2420;51.202;8.698;2023-02-28T10:11:57;1.80;1.00
4813;DHT22;2420;51.202;8.698;2023-02-28T10:14:27;1.90;1.00
4813;DHT22;2420;51.202;8.698;2023-02-28T10:17:04;2.30;1.00
4813;DHT22;2420;51.202;8.698;2023-02-28T10:22:34;2.10;1.00
4813;DHT22;2420;51.202;8.698;2023-02-28T10:25:15;2.40;1.00
4813;DHT22;2420;51.202;8.698;2023-02-28T10:27:41;2.20;1.00
4813;DHT22;2420;51.202;8.698;2023-02-28T10:30:10;2.20;1.00
4813;DHT22;2420;51.202;8.698;2023-02-28T10:32:38;2.00;1.00
4813;DHT22;2420;51.202;8.698;2023-02-28T10:35:17;2.20;1.00
4813;DHT22;2420;51.202;8.698;2023-02-28T10:37:46;2.30;1.00
4813;DHT22;2420;51.202;8.698;2023-02-28T10:42:55;1.80;1.00
4813;DHT22;2420;51.202;8.698;2023-02-28T10:45:21;1.10;1.00
4813;DHT22;2420;51.202;8.698;2023-02-28T10:48:01;1.10;1.00
4813;DHT22;2420;51.202;8.698;2023-02-28T10:55:42;1.30;1.00
4813;DHT22;2420;51.202;8.698;2023-02-28T10:58:28;1.20;1.00
4813;DHT22;2420;51.202;8.698;2023-02-28T11:00:54;1.40;1.00
4813;DHT22;2420;51.202;8.698;2023-02-28T11:03:34;1.50;1.00
4813;DHT22;2420;51.202;8.698;2023-02-28T11:06:08;1.90;1.00
4813;DHT22;2420;51.202;8.698;2023-02-28T11:08:48;2.30;1.00
4813;DHT22;2420;51.202;8.698;2023-02-28T11:11:14;2.00;1.00
4813;DHT22;2420;51.202;8.698;2023-02-28T11:13:42;2.10;1.00
4813;DHT22;2420;51.202;8.698;2023-02-28T11:16:10;2.20;1.00
4813;DHT22;2420;51.202;8.698;2023-02-28T11:18:52;2.30;1.00
4813;DHT22;2420;51.202;8.698;2023-02-28T11:21:31;2.20;1.00
4813;DHT22;2420;51.202;8.698;2023-02-28T11:24:19;2.60;1.00
4813;DHT22;2420;51.202;8.698;2023-02-28T11:26:48;2.60;1.00
4813;DHT22;2420;51.202;8.698;2023-02-28T11:32:05;2.50;1.00
4813;DHT22;2420;51.202;8.698;2023-02-28T11:34:36;2.40;1.00
4813;DHT22;2420;51.202;8.698;2023-02-28T11:37:04;2.50;1.00
4813;DHT22;2420;51.202;8.698;2023-02-28T11:39:31;2.40;1.00
4813;DHT22;2420;51.202;8.698;2023-02-28T11:45:15;2.60;1.00
4813;DHT22;2420;51.202;8.698;2023-02-28T11:47:53;2.70;1.00
4813;DHT22;2420;51.202;8.698;2023-02-28T11:50:49;2.60;1.00
4813;DHT22;2420;51.202;8.698;2023-02-28T12:04:42;2.30;1.00
4813;DHT22;2420;51.202;8.698;2023-02-28T12:07:34;2.50;1.00
4813;DHT22;2420;51.202;8.698;2023-02-28T12:10:27;2.20;1.00
4813;DHT22;2420;51.202;8.698;2023-02-28T12:13:18;2.30;1.00
4813;DHT22;2420;51.202;8.698;2023-02-28T12:18:52;2.60;1.00
4813;DHT22;2420;51.202;8.698;2023-02-28T12:27:00;2.50;1.00
4813;DHT22;2420;51.202;8.698;2023-02-28T12:29:43;2.50;1.00
4813;DHT22;2420;51.202;8.698;2023-02-28T12:32:30;2.70;1.00
4813;DHT22;2420;51.202;8.698;2023-02-28T12:37:41;2.70;1.00
4813;DHT22;2420;51.202;8.698;2023-02-28T12:40:21;2.30;1.00
4813;DHT22;2420;51.202;8.698;2023-02-28T12:42:51;2.40;1.00
4813;DHT22;2420;51.202;8.698;2023-02-28T12:45:24;2.60;1.00
4813;DHT22;2420;51.202;8.698;2023-02-28T12:48:00;2.30;1.00
4813;DHT22;2420;51.202;8.698;2023-02-28T12:50:27;2.60;1.00
4813;DHT22;2420;51.202;8.698;2023-02-28T12:56:30;2.80;1.00
4813;DHT22;2420;51.202;8.698;2023-02-28T12:59:03;2.80;1.00
4813;DHT22;2420;51.202;8.698;2023-02-28T13:10:48;3.20;1.00
4813;DHT22;2420;51.202;8.698;2023-02-28T13:13:23;3.10;1.00
4813;DHT22;2420;51.202;8.698;2023-02-28T13:16:04;3.00;1.00
4813;DHT22;2420;51.202;8.698;2023-02-28T13:18:40;3.00;1.00
4813;DHT22;2420;51.202;8.698;2023-02-28T13:21:28;2.70;1.00
4813;DHT22;2420;51.202;8.698;2023-02-28T13:24:03;2.90;1.00
4813;DHT22;2420;51.202;8.698;2023-02-28T13:34:38;2.80;1.00
4813;DHT22;2420;51.202;8.698;2023-02-28T13:42:36;3.00;1.00
4813;DHT22;2420;51.202;8.698;2023-02-28T13:47:43;3.00;1.00
4813;DHT22;2420;51.202;8.698;2023-02-28T14:01:35;2.90;1.00
4813;DHT22;2420;51.202;8.698;2023-02-28T14:06:59;3.20;1.00
4813;DHT22;2420;51.202;8.698;2023-02-28T14:09:32;3.30;1.00
4813;DHT22;2420;51.202;8.698;2023-02-28T14:15:03;3.30;1.00
4813;DHT22;2420;51.202;8.698;2023-02-28T14:17:30;3.10;1.00
4813;DHT22;2420;51.202;8.698;2023-02-28T14:19:57;3.00;1.00
4813;DHT22;2420;51.202;8.698;2023-02-28T14:22:54;2.80;1.00
4813;DHT22;2420;51.202;8.698;2023-02-28T14:25:36;3.00;1.00
4813;DHT22;2420;51.202;8.698;2023-02-28T14:31:23;3.00;1.00
4813;DHT22;2420;51.202;8.698;2023-02-28T14:36:42;3.10;1.00
4813;DHT22;2420;51.202;8.698;2023-02-28T14:39:15;2.90;1.00
4813;DHT22;2420;51.202;8.698;2023-02-28T14:41:43;3.20;1.00
4813;DHT22;2420;51.202;8.698;2023-02-28T14:44:21;3.20;1.00
4813;DHT22;2420;51.202;8.698;2023-02-28T14:46:50;3.20;1.00
4813;DHT22;2420;51.202;8.698;2023-02-28T14:49:37;3.10;1.00
4813;DHT22;2420;51.202;8.698;2023-02-28T14:52:19;3.30;1.00
4813;DHT22;2420;51.202;8.698;2023-02-28T14:54:45;2.90;1.00
4813;DHT22;2420;51.202;8.698;2023-02-28T14:57:29;3.00;1.00
4813;DHT22;2420;51.202;8.698;2023-02-28T15:00:27;2.90;1.00
4813;DHT22;2420;51.202;8.698;2023-02-28T15:02:54;2.90;1.00
4813;DHT22;2420;51.202;8.698;2023-02-28T15:05:25;2.90;1.00
4813;DHT22;2420;51.202;8.698;2023-02-28T15:08:16;3.10;1.00
4813;DHT22;2420;51.202;8.698;2023-02-28T15:10:57;3.10;1.00
4813;DHT22;2420;51.202;8.698;2023-02-28T15:13:31;3.00;1.00
4813;DHT22;2420;51.202;8.698;2023-02-28T15:16:03;3.10;1.00
4813;DHT22;2420;51.202;8.698;2023-02-28T15:23:48;3.20;1.00
4813;DHT22;2420;51.202;8.698;2023-02-28T15:26:20;3.10;1.00
4813;DHT22;2420;51.202;8.698;2023-02-28T15:28:51;3.00;1.00
4813;DHT22;2420;51.202;8.698;2023-02-28T15:31:23;2.90;1.00
4813;DHT22;2420;51.202;8.698;2023-02-28T15:33:56;2.90;1.00
4813;DHT22;2420;51.202;8.698;2023-02-28T15:36:26;2.90;1.00
4813;DHT22;2420;51.202;8.698;2023-02-28T15:38:54;3.10;1.00
4813;DHT22;2420;51.202;8.698;2023-02-28T15:41:26;2.90;1.00
4813;DHT22;2420;51.202;8.698;2023-02-28T15:44:44;3.10;1.00
4813;DHT22;2420;51.202;8.698;2023-02-28T15:47:05;2.90;1.00
4813;DHT22;2420;51.202;8.698;2023-02-28T15:49:45;2.90;1.00
4813;DHT22;2420;51.202;8.698;2023-02-28T15:52:16;2.90;1.00
4813;DHT22;2420;51.202;8.698;2023-02-28T15:54:44;2.90;1.00
4813;DHT22;2420;51.202;8.698;2023-02-28T15:57:19;2.90;1.00
4813;DHT22;2420;51.202;8.698;2023-02-28T15:59:52;2.80;1.00
4813;DHT22;2420;51.202;8.698;2023-02-28T16:02:21;2.70;1.00
4813;DHT22;2420;51.202;8.698;2023-02-28T16:07:33;2.70;1.00
4813;DHT22;2420;51.202;8.698;2023-02-28T16:09:59;2.70;1.00
4813;DHT22;2420;51.202;8.698;2023-02-28T16:12:27;2.50;1.00
4813;DHT22;2420;51.202;8.698;2023-02-28T16:14:57;2.30;1.00
4813;DHT22;2420;51.202;8.698;2023-02-28T16:17:25;2.50;1.00
4813;DHT22;2420;51.202;8.698;2023-02-28T16:19:51;2.30;1.00
4813;DHT22;2420;51.202;8.698;2023-02-28T16:22:17;2.30;1.00
4813;DHT22;2420;51.202;8.698;2023-02-28T16:24:43;2.30;1.00
4813;DHT22;2420;51.202;8.698;2023-02-28T16:27:42;2.00;1.00
4813;DHT22;2420;51.202;8.698;2023-02-28T16:30:17;2.10;1.00
4813;DHT22;2420;51.202;8.698;2023-02-28T16:32:44;2.10;1.00
4813;DHT22;2420;51.202;8.698;2023-02-28T16:35:10;2.10;1.00
4813;DHT22;2420;51.202;8.698;2023-02-28T16:37:36;1.90;1.00
4813;DHT22;2420;51.202;8.698;2023-02-28T16:40:03;1.90;1.00
4813;DHT22;2420;51.202;8.698;2023-02-28T16:42:28;1.80;1.00
4813;DHT22;2420;51.202;8.698;2023-02-28T16:44:56;1.90;1.00
4813;DHT22;2420;51.202;8.698;2023-02-28T16:47:22;1.90;1.00
4813;DHT22;2420;51.202;8.698;2023-02-28T16:49:47;1.80;1.00
4813;DHT22;2420;51.202;8.698;2023-02-28T16:52:14;1.70;1.00
4813;DHT22;2420;51.202;8.698;2023-02-28T16:54:41;1.40;1.00
4813;DHT22;2420;51.202;8.698;2023-02-28T16:57:19;1.60;1.00
4813;DHT22;2420;51.202;8.698;2023-02-28T16:59:46;1.40;1.00
4813;DHT22;2420;51.202;8.698;2023-02-28T17:02:14;1.40;1.00
4813;DHT22;2420;51.202;8.698;2023-02-28T17:04:40;1.30;1.00
4813;DHT22;2420;51.202;8.698;2023-02-28T17:07:10;1.30;1.00
4813;DHT22;2420;51.202;8.698;2023-02-28T17:09:36;1.50;1.00
4813;DHT22;2420;51.202;8.698;2023-02-28T17:12:01;1.50;1.00
4813;DHT22;2420;51.202;8.698;2023-02-28T17:14:27;1.50;1.00
4813;DHT22;2420;51.202;8.698;2023-02-28T17:16:52;1.30;1.00
4813;DHT22;2420;51.202;8.698;2023-02-28T17:19:18;1.00;1.00
4813;DHT22;2420;51.202;8.698;2023-02-28T17:21:45;1.20;1.00
4813;DHT22;2420;51.202;8.698;2023-02-28T17:24:11;1.00;1.00
4813;DHT22;2420;51.202;8.698;2023-02-28T17:26:39;1.10;1.00
4813;DHT22;2420;51.202;8.698;2023-02-28T17:29:11;1.00;1.00
4813;DHT22;2420;51.202;8.698;2023-02-28T17:31:38;1.00;1.00
4813;DHT22;2420;51.202;8.698;2023-02-28T17:34:04;0.90;1.00
4813;DHT22;2420;51.202;8.698;2023-02-28T17:36:30;0.90;1.00
4813;DHT22;2420;51.202;8.698;2023-02-28T17:38:56;0.80;1.00
4813;DHT22;2420;51.202;8.698;2023-02-28T17:41:22;0.80;1.00
4813;DHT22;2420;51.202;8.698;2023-02-28T17:43:47;0.90;1.00
4813;DHT22;2420;51.202;8.698;2023-02-28T17:46:21;0.70;1.00
4813;DHT22;2420;51.202;8.698;2023-02-28T17:48:52;0.60;1.00
4813;DHT22;2420;51.202;8.698;2023-02-28T17:51:23;0.70;1.00
4813;DHT22;2420;51.202;8.698;2023-02-28T17:53:49;0.90;1.00
4813;DHT22;2420;51.202;8.698;2023-02-28T17:56:20;0.60;1.00
4813;DHT22;2420;51.202;8.698;2023-02-28T17:58:46;0.70;1.00
4813;DHT22;2420;51.202;8.698;2023-02-28T18:01:12;0.50;1.00
4813;DHT22;2420;51.202;8.698;2023-02-28T18:03:38;0.40;1.00
4813;DHT22;2420;51.202;8.698;2023-02-28T18:06:04;0.30;1.00
4813;DHT22;2420;51.202;8.698;2023-02-28T18:08:30;0.30;1.00
4813;DHT22;2420;51.202;8.698;2023-02-28T18:10:56;0.20;1.00
4813;DHT22;2420;51.202;8.698;2023-02-28T18:13:21;0.20;1.00
4813;DHT22;2420;51.202;8.698;2023-02-28T18:15:47;0.40;1.00
4813;DHT22;2420;51.202;8.698;2023-02-28T18:18:13;0.30;1.00
4813;DHT22;2420;51.202;8.698;2023-02-28T18:20:39;0.20;1.00
4813;DHT22;2420;51.202;8.698;2023-02-28T18:23:05;0.10;1.00
4813;DHT22;2420;51.202;8.698;2023-02-28T18:25:30;0.00;1.00
4813;DHT22;2420;51.202;8.698;2023-02-28T18:27:56;0.30;1.00
4813;DHT22;2420;51.202;8.698;2023-02-28T18:30:29;0.20;1.00
4813;DHT22;2420;51.202;8.698;2023-02-28T18:32:56;0.20;1.00
4813;DHT22;2420;51.202;8.698;2023-02-28T18:35:23;0.10;1.00
4813;DHT22;2420;51.202;8.698;2023-02-28T18:38:07;0.10;1.00
4813;DHT22;2420;51.202;8.698;2023-02-28T18:40:33;-0.20;1.00
4813;DHT22;2420;51.202;8.698;2023-02-28T18:43:00;-0.20;1.00
4813;DHT22;2420;51.202;8.698;2023-02-28T18:45:26;0.20;1.00
4813;DHT22;2420;51.202;8.698;2023-02-28T18:47:52;0.20;1.00
4813;DHT22;2420;51.202;8.698;2023-02-28T18:50:18;0.20;1.00
4813;DHT22;2420;51.202;8.698;2023-02-28T18:52:43;-0.20;1.00